Date,TemperatureHighF,TemperatureAvgF,TemperatureLowF,DewpointHighF,DewpointAvgF,DewpointLowF,HumidityHigh,HumidityAvg,HumidityLow,PressureMaxIn,PressureMinIn,WindSpeedMaxMPH,WindSpeedAvgMPH,GustSpeedMaxMPH,PrecipitationSumIn
2013-1-1,15,4,-11,10,-3,-15,84,75,58,29.29,29.08,6,1,8,0.00
2013-1-2,22,12,1,16,7,-100,88,81,69,29.08,28.96,5,0,7,0.00
2013-1-3,22,16,3,19,11,0,89,82,73,29.24,29.04,7,2,10,0.00
2013-1-4,32,18,3,20,12,0,89,79,60,29.16,29.05,6,2,10,0.00
2013-1-5,34,19,4,26,14,1,90,82,70,29.15,28.86,7,2,13,0.00
2013-1-6,25,17,5,17,12,2,88,80,64,29.23,28.94,7,2,11,0.00
2013-1-7,36,25,8,27,19,5,91,79,65,29.17,28.94,9,2,18,0.00
2013-1-8,38,25,10,32,21,7,93,84,72,29.02,28.83,8,2,15,0.00
2013-1-9,38,30,18,28,24,16,90,77,59,29.40,28.92,10,3,17,0.00
2013-1-10,41,28,15,34,23,13,94,82,50,29.41,28.78,4,1,6,0.30
2013-1-11,43,37,33,43,36,32,97,96,94,28.78,28.48,4,0,8,0.00
2013-1-12,47,24,12,44,18,5,97,78,71,29.04,28.47,10,4,24,0.00
2013-1-13,12,9,5,6,3,1,81,75,71,29.23,28.97,7,3,11,0.00
2013-1-14,22,10,0,14,5,-3,87,80,70,29.39,29.23,6,1,11,0.00
2013-1-15,32,16,2,20,10,-1,89,75,57,29.34,28.94,6,1,11,0.00
2013-1-16,41,28,21,34,22,10,86,75,61,29.14,28.73,10,3,15,0.00
2013-1-17,24,16,9,15,7,1,87,67,52,29.37,29.14,8,2,14,0.00
2013-1-18,46,32,12,35,25,9,86,77,61,29.32,28.76,8,2,15,0.00
2013-1-19,45,30,6,34,23,-3,92,75,52,29.11,28.68,14,4,27,0.00
2013-1-20,13,7,3,1,-2,-4,75,67,54,29.33,29.10,10,3,18,0.00
2013-1-21,4,-3,-7,-3,-11,-15,74,69,61,29.29,29.19,9,3,17,0.00
2013-1-22,6,-1,-9,-3,-9,-14,80,69,58,29.37,29.23,7,2,10,0.00
2013-1-23,18,10,-2,12,2,-13,83,71,56,29.52,29.08,13,3,20,0.00
2013-1-24,13,3,-5,5,-6,-13,69,65,60,29.64,29.23,6,2,8,0.00
2013-1-25,24,16,6,16,9,1,84,74,60,29.25,28.93,9,2,15,0.00
2013-1-26,25,13,-1,14,5,-5,84,70,55,29.36,29.19,7,2,9,0.00
2013-1-27,31,28,25,30,23,14,94,80,62,29.20,28.79,5,1,8,0.00
2013-1-28,33,32,31,32,31,30,96,95,93,28.93,28.66,4,0,7,0.00
2013-1-29,42,35,32,42,34,29,97,92,85,28.66,28.51,7,2,15,0.00
2013-1-30,32,21,12,29,17,7,92,85,76,28.68,28.47,12,5,20,0.00
2013-1-31,12,5,-5,8,-1,-10,83,77,70,29.21,28.68,8,3,15,0.00
2013-2-1,5,-2,-13,0,-9,-18,84,74,61,29.31,29.05,6,2,11,0.00
2013-2-2,14,6,1,6,1,-4,86,80,67,29.13,28.95,5,1,8,0.00
2013-2-3,15,11,7,10,7,3,88,81,68,29.05,28.92,10,2,14,0.00
2013-2-4,20,12,5,10,6,1,88,76,51,29.01,28.87,6,2,8,0.30
2013-2-5,30,19,4,26,15,1,90,85,75,29.08,28.70,9,2,16,0.00
2013-2-6,31,16,-3,28,12,-7,91,84,74,29.15,28.95,6,1,9,0.00
2013-2-7,31,28,25,29,26,22,92,91,89,29.18,28.95,7,2,13,0.00
2013-2-8,29,21,7,22,15,4,90,80,61,29.35,29.18,5,1,10,0.00
2013-2-9,29,25,10,25,22,7,89,86,83,29.29,28.97,8,2,12,0.00
2013-2-10,38,33,28,38,31,25,96,92,87,28.97,28.30,6,1,11,0.30
2013-2-11,35,27,20,34,24,15,95,86,78,29.02,28.30,9,4,22,0.00
2013-2-12,36,24,14,27,19,10,92,81,67,29.04,28.82,6,2,12,0.00
2013-2-13,39,28,16,31,24,14,94,84,67,28.82,28.57,5,1,7,0.00
2013-2-14,36,30,18,34,24,7,95,79,57,29.10,28.55,9,3,15,0.00
2013-2-15,21,12,5,10,4,0,80,71,58,29.24,29.10,7,2,15,0.00
2013-2-16,20,8,-2,8,1,-6,85,75,58,29.22,29.12,6,1,8,0.00
2013-2-17,30,15,-4,21,8,-7,86,75,59,29.16,28.74,8,2,11,0.00
2013-2-18,39,27,12,32,22,8,90,81,72,28.74,28.52,8,2,14,0.00
2013-2-19,13,7,-2,8,0,-8,84,74,64,29.28,28.69,12,3,19,0.00
2013-2-20,20,8,-5,10,1,-10,83,73,59,29.38,29.28,6,2,10,0.00
2013-2-21,22,14,2,20,9,-1,90,79,70,29.41,29.00,8,3,13,0.00
2013-2-22,28,24,21,26,22,19,94,93,90,29.00,28.81,8,3,15,0.00
2013-2-23,26,22,15,24,20,13,92,91,89,28.96,28.83,6,2,10,0.00
2013-2-24,38,20,3,30,15,0,91,81,57,29.09,28.95,6,1,10,0.30
2013-2-25,43,29,21,31,24,19,91,81,60,29.10,29.01,4,1,7,0.00
2013-2-26,37,30,20,28,24,18,93,80,68,29.01,28.76,10,3,17,0.00
2013-2-27,34,31,29,30,27,24,88,83,76,28.91,28.74,8,3,14,0.00
2013-2-28,31,30,26,27,23,18,86,76,70,29.15,28.91,7,2,12,0.00
2013-3-1,30,22,10,18,14,7,86,73,60,29.27,29.15,8,2,12,0.00
2013-3-2,32,17,3,14,8,0,89,71,41,29.29,29.16,5,1,11,0.00
2013-3-3,36,19,3,15,8,0,86,65,37,29.16,29.01,6,1,8,0.00
2013-3-4,29,26,19,24,17,9,86,68,53,29.04,28.95,6,1,9,0.00
2013-3-5,28,26,21,25,22,18,91,88,84,29.19,28.95,6,2,11,0.00
2013-3-6,32,22,7,22,16,4,91,78,60,29.34,29.18,7,2,11,0.30
2013-3-7,37,18,2,23,12,-1,88,76,52,29.39,29.31,7,1,10,0.30
2013-3-8,43,29,14,31,23,11,91,78,61,29.37,29.16,8,2,13,0.00
2013-3-9,37,35,31,36,33,26,95,91,82,29.16,28.74,6,1,9,0.00
2013-3-10,36,34,31,35,33,30,96,95,93,28.87,28.69,7,1,13,0.00
2013-3-11,32,29,26,30,27,23,96,92,87,28.81,28.65,3,0,5,0.00
2013-3-12,30,24,18,25,20,15,89,84,76,29.10,28.81,4,0,8,0.00
2013-3-13,33,20,9,19,13,6,89,75,53,29.32,29.10,6,1,12,0.00
2013-3-14,39,25,15,31,21,12,92,84,68,29.28,29.00,7,1,10,0.30
2013-3-15,34,30,22,32,29,20,95,92,89,29.02,28.78,5,1,8,0.60
2013-3-16,32,25,15,31,22,12,95,86,65,29.17,28.80,6,1,10,0.00
2013-3-17,34,21,7,20,13,3,87,72,53,29.23,28.93,6,2,11,0.00
2013-3-18,31,22,13,28,18,8,91,83,71,28.94,28.60,10,2,18,0.00
2013-3-19,27,15,8,12,6,1,80,69,51,29.11,28.77,11,5,19,0.00
2013-3-20,21,11,4,8,2,-4,80,65,55,29.15,29.05,11,3,18,0.00
2013-3-21,28,13,-4,13,4,-7,85,70,50,29.10,29.01,7,1,12,0.00
2013-3-22,38,19,2,17,10,-1,86,68,39,29.07,29.01,6,1,9,0.00
2013-3-23,40,28,13,23,18,9,85,66,46,29.12,29.04,5,1,8,0.00
2013-3-24,33,30,27,27,23,22,83,75,69,29.06,28.88,7,2,11,0.00
2013-3-25,35,29,22,24,20,17,81,71,58,29.16,28.92,8,3,14,0.00
2013-3-26,39,31,21,26,22,16,83,70,43,29.27,29.16,6,1,10,0.00
2013-3-27,43,33,23,24,22,18,81,65,41,29.32,29.27,6,1,10,0.00
2013-3-28,47,31,16,27,21,13,87,67,39,29.34,29.27,5,1,8,0.00
2013-3-29,52,35,20,33,26,17,89,71,45,29.31,29.14,7,1,9,0.00
2013-3-30,50,40,32,42,36,29,95,83,69,29.14,28.85,6,1,12,0.60
2013-3-31,42,34,27,35,28,15,96,78,45,29.00,28.79,10,2,16,0.00
2013-4-1,34,26,19,18,16,13,76,64,48,29.21,29.00,10,3,15,0.00
2013-4-2,37,26,16,20,16,12,87,68,41,29.34,29.21,8,2,14,0.00
2013-4-3,46,30,14,26,18,10,87,63,36,29.42,29.18,10,2,13,0.00
2013-4-4,51,40,30,38,28,22,82,62,44,29.18,29.01,8,2,13,0.00
2013-4-5,48,35,23,33,25,20,92,71,38,29.23,28.97,7,1,11,0.00
2013-4-6,57,44,36,48,35,23,93,72,54,28.98,28.51,7,2,15,0.00
2013-4-7,52,40,35,40,34,32,88,80,62,28.97,28.71,7,2,13,0.00
2013-4-8,54,43,38,47,39,35,94,86,75,29.00,28.67,5,1,9,0.00
2013-4-9,41,38,36,38,36,34,95,92,86,29.11,28.82,13,4,21,0.90
2013-4-10,36,33,31,34,31,29,94,92,80,29.13,28.77,15,4,22,0.30
2013-4-11,36,33,31,34,31,29,95,91,79,28.85,28.62,11,4,18,0.00
2013-4-12,35,32,29,31,29,28,96,90,81,28.81,28.59,6,2,10,0.00
2013-4-13,36,32,28,29,27,25,89,81,68,28.97,28.80,7,2,13,0.00
2013-4-14,39,33,25,38,31,24,96,92,83,28.97,28.55,8,1,12,0.60
2013-4-15,46,38,31,36,32,27,97,78,62,28.99,28.61,10,3,20,0.00
2013-4-16,49,37,27,35,29,25,92,75,47,29.30,28.98,7,2,11,0.00
2013-4-17,39,36,29,37,33,26,94,88,78,29.29,28.73,14,3,23,0.00
2013-4-18,39,37,32,38,35,31,95,94,92,28.84,28.38,11,2,15,0.00
2013-4-19,37,33,27,31,27,23,94,80,62,28.96,28.38,14,4,22,0.00
2013-4-20,45,33,20,25,21,16,93,64,34,29.31,28.96,7,2,9,0.00
2013-4-21,54,40,28,45,34,22,94,79,60,29.36,29.10,10,2,14,0.30
2013-4-22,48,45,40,47,44,39,96,94,89,29.16,28.96,4,1,8,0.00
2013-4-23,40,35,28,39,30,24,94,81,61,29.08,28.95,9,3,15,0.00
2013-4-24,51,38,25,36,28,22,90,70,45,29.06,28.90,10,2,20,0.00
2013-4-25,51,39,31,34,31,26,90,74,43,29.24,28.98,7,2,14,0.00
2013-4-26,73,56,31,49,41,26,85,57,39,29.18,29.04,10,3,19,0.00
2013-4-27,71,57,44,51,47,41,93,70,47,29.17,28.99,10,2,14,0.00
2013-4-28,75,57,38,50,45,36,95,67,40,29.00,28.74,11,2,19,0.00
2013-4-29,74,63,52,59,54,48,95,73,55,28.82,28.64,9,2,14,0.00
2013-4-30,82,67,52,61,55,47,94,67,41,28.99,28.58,10,3,17,0.00
2013-5-1,52,47,37,49,42,33,94,82,69,29.36,28.92,9,3,17,0.71
2013-5-2,38,33,31,34,31,29,94,91,82,29.42,29.30,10,3,16,0.00
2013-5-3,35,33,30,34,31,28,95,93,91,29.31,29.05,6,2,12,2.13
2013-5-4,62,46,35,54,42,33,96,86,70,29.10,29.02,7,2,11,0.00
2013-5-5,71,55,40,53,46,37,91,73,50,29.12,29.02,6,2,10,0.00
2013-5-6,77,60,43,53,46,40,95,65,29,29.10,28.99,7,1,10,0.00
2013-5-7,78,62,45,50,45,42,90,58,28,29.07,28.97,6,1,10,0.00
2013-5-8,80,63,44,55,48,41,91,61,30,29.03,28.93,8,2,12,0.00
2013-5-9,59,56,49,58,55,47,96,95,88,29.00,28.91,7,1,14,1.42
2013-5-10,64,50,41,51,43,38,94,79,47,29.04,28.92,6,2,12,0.00
2013-5-11,51,46,41,45,32,24,94,61,39,29.12,28.84,14,5,24,0.00
2013-5-12,56,43,32,30,26,23,76,51,32,29.18,29.08,11,3,17,0.00
2013-5-13,66,49,27,47,33,23,87,58,28,29.14,28.77,8,2,13,0.00
2013-5-14,92,72,49,65,52,41,89,52,30,28.77,28.47,9,2,16,0.00
2013-5-15,75,64,51,51,47,41,86,55,37,28.93,28.64,7,2,12,0.00
2013-5-16,85,65,45,58,50,43,94,63,30,28.94,28.85,7,1,9,0.00
2013-5-17,65,55,48,59,52,-100,96,89,55,29.09,28.91,4,0,7,2.13
2013-5-18,81,64,48,67,58,48,97,82,59,29.04,28.88,8,1,14,0.00
2013-5-19,84,68,58,71,63,57,97,84,62,28.90,28.63,10,2,22,2.36
2013-5-20,80,68,60,64,61,59,97,82,54,0.00,40.00,8,2,15,0.71
2013-5-21,70,63,57,62,58,55,97,85,66,0.00,40.00,7,1,11,0.00
2013-5-22,60,57,51,58,55,50,96,94,89,0.00,40.00,4,1,10,0.71
2013-5-23,64,52,40,50,43,37,95,75,40,0.00,40.00,7,2,15,0.00
2013-5-24,67,51,34,50,42,32,95,73,41,0.00,40.00,8,1,10,0.00
2013-5-25,60,54,50,53,48,45,95,81,62,0.00,40.00,5,1,8,0.00
2013-5-26,55,51,45,52,47,40,92,85,61,0.00,40.00,4,1,7,0.00
2013-5-27,56,54,52,54,52,49,96,92,82,0.00,40.00,5,1,7,0.71
2013-5-28,63,57,52,61,55,-100,97,95,90,0.00,40.00,4,0,5,0.00
2013-5-29,82,66,58,71,62,58,97,90,66,0.00,40.00,8,1,15,1.18
2013-5-30,78,67,61,72,65,60,98,91,68,0.00,40.00,6,1,11,0.00
2013-5-31,79,68,58,66,62,-100,94,81,58,0.00,40.00,8,0,16,0.00
2013-6-1,70,61,52,61,57,49,97,85,66,0.00,40.00,7,2,14,0.00
2013-6-2,63,52,42,50,44,41,94,77,52,0.00,40.00,7,2,11,0.00
2013-6-3,69,54,38,55,46,36,96,75,46,0.00,40.00,6,1,9,0.00
2013-6-4,56,54,52,55,53,50,97,95,90,0.00,40.00,2,0,4,0.00
2013-6-5,57,54,51,56,54,50,97,97,97,0.00,40.00,2,0,3,0.00
2013-6-6,56,54,53,55,54,52,98,97,94,0.00,40.00,3,0,7,0.00
2013-6-7,70,58,51,58,53,50,97,85,53,0.00,40.00,6,1,10,0.00
2013-6-8,72,61,51,62,56,50,97,84,58,0.00,40.00,5,1,10,0.00
2013-6-9,66,60,55,65,58,54,97,96,92,0.00,40.00,3,0,4,0.00
2013-6-10,76,63,54,66,60,54,98,88,62,0.00,40.00,6,1,8,0.00
2013-6-11,81,67,52,72,63,51,97,87,66,0.00,40.00,4,1,7,0.00
2013-6-12,77,68,61,72,66,60,97,93,81,0.00,40.00,4,1,10,0.71
2013-6-13,78,65,55,62,58,54,97,78,50,0.00,40.00,5,1,9,0.00
2013-6-14,77,64,52,64,58,50,97,81,55,0.00,40.00,6,1,9,0.00
2013-6-15,79,68,59,71,65,58,97,89,72,0.00,40.00,5,1,9,0.71
2013-6-16,84,68,54,64,58,51,97,74,34,0.00,40.00,8,1,13,0.00
2013-6-17,84,68,54,65,58,52,96,73,41,0.00,40.00,10,1,13,0.00
2013-6-18,76,64,53,60,56,49,95,76,50,0.00,40.00,6,1,10,0.00
2013-6-19,81,64,48,66,57,47,96,79,56,0.00,40.00,6,1,10,0.00
2013-6-20,86,71,56,71,64,55,96,78,53,0.00,40.00,6,1,12,0.00
2013-6-21,81,71,63,73,66,62,96,86,68,0.00,40.00,14,1,26,0.71
2013-6-22,85,72,65,78,68,64,97,90,75,0.00,40.00,12,1,22,1.18
2013-6-23,82,71,62,73,67,61,97,87,64,0.00,40.00,7,1,16,0.00
2013-6-24,77,68,62,73,66,61,97,92,80,0.00,40.00,5,0,10,0.00
2013-6-25,83,72,64,77,69,63,98,93,77,0.00,40.00,4,1,9,0.00
2013-6-26,82,71,66,75,68,65,98,93,76,0.00,40.00,4,1,7,0.00
2013-6-27,86,77,61,73,65,59,98,69,46,0.00,40.00,10,2,14,0.00
2013-6-28,76,67,57,67,62,56,96,84,65,0.00,40.00,10,2,17,0.71
2013-6-29,69,64,58,65,61,56,95,91,79,0.00,40.00,4,1,11,0.00
2013-6-30,79,64,51,60,54,49,95,73,38,0.00,40.00,5,1,9,0.00
2013-7-1,82,65,51,64,57,50,96,78,46,0.00,40.00,4,1,8,0.00
2013-7-2,80,65,53,66,59,-100,96,82,53,0.00,40.00,5,-1,10,0.00
2013-7-3,80,65,52,65,58,51,97,78,45,0.00,40.00,4,1,9,0.00
2013-7-4,85,69,54,68,61,53,96,78,47,0.00,40.00,5,1,11,0.00
2013-7-5,87,71,56,68,62,54,97,76,46,0.00,40.00,6,1,14,0.00
2013-7-6,89,75,63,74,67,61,94,77,55,0.00,40.00,5,1,10,0.00
2013-7-7,89,76,67,77,70,65,95,82,59,0.00,40.00,4,1,8,0.00
2013-7-8,89,77,68,78,72,66,96,83,62,0.00,40.00,7,1,14,0.00
2013-7-9,88,73,65,78,70,64,97,89,63,0.00,40.00,8,1,16,0.71
2013-7-10,79,70,57,69,61,55,96,76,49,0.00,40.00,8,2,13,0.00
2013-7-11,84,67,54,68,60,52,97,81,48,0.00,40.00,3,1,7,0.00
2013-7-12,84,69,55,68,62,54,97,79,54,0.00,40.00,5,1,9,0.00
2013-7-13,78,68,62,69,63,59,95,86,66,0.00,40.00,4,1,9,0.00
2013-7-14,87,72,59,73,66,58,97,83,53,0.00,40.00,4,1,8,0.00
2013-7-15,87,74,61,78,70,60,97,87,62,0.00,40.00,3,0,4,0.00
2013-7-16,92,78,67,78,73,66,97,84,60,0.00,40.00,4,1,8,0.00
2013-7-17,94,79,68,77,72,67,97,80,48,0.00,40.00,6,1,8,0.00
2013-7-18,94,81,68,76,72,67,97,74,51,0.00,40.00,6,2,15,0.00
2013-7-19,89,78,62,75,68,58,94,71,36,0.00,40.00,7,2,16,0.00
2013-7-20,82,69,58,69,63,57,96,82,57,0.00,40.00,4,1,7,0.00
2013-7-21,75,66,60,70,64,59,97,93,77,0.00,40.00,4,0,7,0.00
2013-7-22,88,70,57,77,67,56,97,91,69,0.00,40.00,5,1,10,0.71
2013-7-23,74,64,53,65,57,52,97,80,57,0.00,40.00,5,1,13,0.00
2013-7-24,74,61,48,64,56,47,96,84,56,0.00,40.00,4,0,7,0.00
2013-7-25,80,63,52,71,60,51,97,92,69,0.00,40.00,5,1,10,1.42
2013-7-26,74,66,58,66,60,52,97,81,58,0.00,40.00,9,2,16,0.00
2013-7-27,60,54,48,53,49,-100,93,83,68,0.00,40.00,9,1,14,0.00
2013-7-28,68,56,47,58,52,45,95,84,64,0.00,40.00,9,2,12,0.00
2013-7-29,77,60,46,64,55,45,97,84,56,0.00,40.00,4,0,6,0.00
2013-7-30,76,64,53,68,61,52,96,89,74,0.00,40.00,3,0,6,0.00
2013-7-31,79,68,58,68,63,56,96,85,61,0.00,40.00,6,1,9,0.00
2013-8-1,81,65,52,66,57,51,96,79,46,0.00,40.00,7,1,10,0.00
2013-8-2,77,64,53,64,58,52,97,81,50,0.00,40.00,6,1,9,0.00
2013-8-3,79,62,49,60,54,48,96,78,47,0.00,40.00,6,1,9,0.00
2013-8-4,73,59,47,64,55,46,96,87,61,0.00,40.00,4,0,6,0.00
2013-8-5,69,62,52,66,61,51,97,94,88,0.00,40.00,3,0,7,1.42
2013-8-6,85,72,63,73,67,62,97,85,58,0.00,40.00,7,1,14,0.00
2013-8-7,76,64,52,64,60,51,97,86,60,0.00,40.00,6,1,9,0.00
2013-8-8,78,61,47,65,56,46,97,83,53,0.00,40.00,4,0,6,0.00
2013-8-9,80,65,53,63,58,52,96,79,46,0.00,40.00,7,1,11,0.00
2013-8-10,76,62,51,62,56,50,96,81,55,0.00,40.00,4,1,7,0.00
2013-8-11,72,63,54,67,62,53,97,94,81,0.00,40.00,3,0,7,0.00
2013-8-12,79,66,55,68,62,54,98,87,56,0.00,40.00,5,1,9,0.00
2013-8-13,73,59,49,59,52,48,97,81,49,0.00,40.00,4,1,8,0.00
2013-8-14,75,59,46,62,53,45,97,83,50,0.00,40.00,6,1,8,0.00
2013-8-15,78,62,50,62,55,50,97,80,44,0.00,40.00,4,1,8,0.00
2013-8-16,78,61,49,66,56,48,97,85,52,0.00,40.00,4,0,7,0.00
2013-8-17,82,63,49,66,57,48,97,83,47,0.00,40.00,4,0,7,0.00
2013-8-18,80,63,50,66,57,49,97,84,54,0.00,40.00,4,1,9,0.00
2013-8-19,82,66,52,71,61,-100,97,85,62,0.00,40.00,4,0,9,0.00
2013-8-20,87,72,59,75,67,58,97,85,66,0.00,40.00,4,1,10,0.00
2013-8-21,86,40,66,75,-6,-100,96,48,68,0.00,40.00,5,1,12,0.00
2013-8-22,-200,0,200,-100,-100,-100,0,0,100,0.00,40.00,6,1,11,0.00
2013-8-23,-200,0,200,-100,-100,-100,0,0,100,0.00,40.00,5,1,10,0.00
2013-8-24,-200,0,200,-100,-100,-100,0,0,100,0.00,40.00,5,1,9,0.00
2013-8-25,-200,0,200,-100,-100,-100,0,0,100,0.00,40.00,5,2,10,0.00
2013-8-26,-200,0,200,-100,-100,-100,0,0,100,0.00,40.00,5,1,10,0.00
2013-8-27,-200,0,200,-100,-100,-100,0,0,100,0.00,40.00,6,2,12,0.00
2013-8-28,-200,0,200,-100,-100,-100,0,0,100,0.00,40.00,4,1,6,0.00
2013-8-29,-200,0,200,-100,-100,-100,0,0,100,0.00,40.00,4,1,9,0.00
2013-8-30,-200,0,200,-100,-100,-100,0,0,100,0.00,40.00,4,1,9,0.00
2013-8-31,-200,0,200,-100,-100,-100,0,0,100,0.00,40.00,5,1,7,0.00
2013-9-1,-200,0,200,-100,-100,-100,0,0,100,0.00,40.00,8,2,16,0.00
2013-9-2,-200,0,200,-100,-100,-100,0,0,100,0.00,40.00,6,1,10,0.00
2013-9-3,-200,0,200,-100,-100,-100,0,0,100,0.00,40.00,5,1,7,0.00
2013-9-4,-200,0,200,-100,-100,-100,0,0,100,0.00,40.00,4,1,8,0.00
2013-9-5,-200,0,200,-100,-100,-100,0,0,100,0.00,40.00,4,1,6,0.00
2013-9-6,-200,0,200,-100,-100,-100,0,0,100,0.00,40.00,5,1,10,0.00
2013-9-7,-200,0,200,-100,-100,-100,0,0,100,0.00,40.00,3,1,5,0.00
2013-9-8,-200,0,200,-100,-100,-100,0,0,100,0.00,40.00,4,1,9,0.00
2013-9-9,-200,0,200,-100,-100,-100,0,0,100,0.00,40.00,6,1,10,0.00
2013-9-10,-200,0,200,-100,-100,-100,0,0,100,0.00,40.00,5,1,12,0.00
2013-9-11,-200,0,200,-100,-100,-100,0,0,100,0.00,40.00,7,1,12,0.00
2013-9-12,-200,0,200,-100,-100,-100,0,0,100,0.00,40.00,7,2,13,0.00
2013-9-13,-200,0,200,-100,-100,-100,0,0,100,0.00,40.00,4,1,9,0.00
2013-9-14,-200,0,200,-100,-100,-100,0,0,100,0.00,40.00,5,1,11,0.00
2013-9-15,-200,0,200,-100,-100,-100,0,0,100,0.00,40.00,6,1,10,0.00
2013-9-16,-200,0,200,-100,-100,-100,0,0,100,0.00,40.00,5,1,9,0.00
2013-9-17,-200,0,200,-100,-100,-100,0,0,100,0.00,40.00,4,0,6,0.00
2013-9-18,-200,0,200,-100,-100,-100,0,0,100,0.00,40.00,6,1,10,0.00
2013-9-19,-200,0,200,-100,-100,-100,0,0,100,0.00,40.00,4,1,9,0.00
2013-9-20,-200,0,200,-100,-100,-100,0,0,100,0.00,40.00,8,2,13,0.00
2013-9-21,-200,0,200,-100,-100,-100,0,0,100,0.00,40.00,7,1,11,0.00
2013-9-22,-200,0,200,-100,-100,-100,0,0,100,0.00,40.00,5,0,7,0.00
2013-9-23,-200,0,200,-100,-100,-100,0,0,100,0.00,40.00,5,1,10,0.00
2013-9-24,-200,0,200,-100,-100,-100,0,0,100,0.00,40.00,4,0,7,0.00
2013-9-25,-200,0,200,-100,-100,-100,0,0,100,0.00,40.00,4,0,6,0.00
2013-9-26,-200,0,200,-100,-100,-100,0,0,100,0.00,40.00,4,1,9,0.00
2013-9-27,-200,0,200,-100,-100,-100,0,0,100,0.00,40.00,6,1,10,0.00
2013-9-28,-200,0,200,-100,-100,-100,0,0,100,0.00,40.00,7,1,13,0.00
2013-9-29,-200,0,200,-100,-100,-100,0,0,100,0.00,40.00,5,1,12,0.00
2013-9-30,-200,0,200,-100,-100,-100,0,0,100,0.00,40.00,7,2,12,0.00
2013-10-1,-200,0,200,-100,-100,-100,0,0,100,0.00,40.00,7,2,11,0.00
2013-10-2,-200,0,200,-100,-100,-100,0,0,100,0.00,40.00,4,-26,7,0.00
2013-10-3,-200,0,200,-100,-100,-100,0,0,100,0.00,40.00,4,0,9,0.00
2013-10-4,-200,0,200,-100,-100,-100,0,0,100,0.00,40.00,5,1,9,0.00
2013-10-5,-200,0,200,-100,-100,-100,0,0,100,0.00,40.00,7,1,16,0.00
2013-10-6,-200,0,200,-100,-100,-100,0,0,100,0.00,40.00,4,0,7,0.00
2013-10-7,-200,0,200,-100,-100,-100,0,0,100,0.00,40.00,7,1,13,0.00
2013-10-8,-200,0,200,-100,-100,-100,0,0,100,0.00,40.00,7,1,12,0.00
2013-10-9,-200,0,200,-100,-100,-100,0,0,100,0.00,40.00,7,1,12,0.00
2013-10-10,-200,0,200,-100,-100,-100,0,0,100,0.00,40.00,6,1,9,0.00
2013-10-11,-200,0,200,-100,-100,-100,0,0,100,0.00,40.00,6,1,12,0.00
2013-10-12,-200,0,200,-100,-100,-100,0,0,100,0.00,40.00,8,2,15,0.00
2013-10-13,-200,0,200,-100,-100,-100,0,0,100,0.00,40.00,7,1,12,0.00
2013-10-14,-200,0,200,-100,-100,-100,0,0,100,0.00,40.00,5,1,7,0.00
2013-10-15,-200,0,200,-100,-100,-100,0,0,100,0.00,40.00,6,1,15,0.00
2013-10-16,-200,0,200,-100,-100,-100,0,0,100,0.00,40.00,7,2,12,0.00
2013-10-17,-200,0,200,-100,-100,-100,0,0,100,0.00,40.00,4,0,9,0.00
2013-10-18,-200,0,200,-100,-100,-100,0,0,100,0.00,40.00,10,2,16,0.00
2013-10-19,-200,0,200,-100,-100,-100,0,0,100,0.00,40.00,6,1,15,0.00
2013-10-20,-200,0,200,-100,-100,-100,0,0,100,0.00,40.00,7,1,13,0.00
2013-10-21,-200,0,200,-100,-100,-100,0,0,100,0.00,40.00,8,2,12,0.00
2013-10-22,-200,0,200,-100,-100,-100,0,0,100,0.00,40.00,7,1,10,0.00
2013-10-23,-200,0,200,-100,-100,-100,0,0,100,0.00,40.00,7,1,13,0.00
2013-10-24,-200,0,200,-100,-100,-100,0,0,100,0.00,40.00,8,2,14,0.00
2013-10-25,-200,0,200,-100,-100,-100,0,0,100,0.00,40.00,9,2,18,0.00
2013-10-26,-200,0,200,-100,-100,-100,0,0,100,0.00,40.00,10,3,18,0.00
2013-10-27,-200,0,200,-100,-100,-100,0,0,100,0.00,40.00,7,1,13,0.00
2013-10-28,-200,0,200,-100,-100,-100,0,0,100,0.00,40.00,7,2,14,0.00
2013-10-29,-200,0,200,-100,-100,-100,0,0,100,0.00,40.00,4,1,8,0.00
2013-10-30,-200,0,200,-100,-100,-100,0,0,100,0.00,40.00,3,1,7,0.00
2013-10-31,-200,0,200,-100,-100,-100,0,0,100,0.00,40.00,5,1,10,0.00
2013-11-1,-200,0,200,-100,-100,-100,0,0,100,0.00,40.00,6,2,11,0.00
2013-11-2,-200,0,200,-100,-100,-100,0,0,100,0.00,40.00,8,1,15,0.00
2013-11-3,-200,0,200,-100,-100,-100,0,0,100,0.00,40.00,8,1,12,0.00
2013-11-4,-200,0,200,-100,-100,-100,0,0,100,0.00,40.00,6,1,13,0.00
2013-11-5,-200,0,200,-100,-100,-100,0,0,100,0.00,40.00,6,1,12,0.00
2013-11-6,-200,0,200,-100,-100,-100,0,0,100,0.00,40.00,12,3,19,0.00
2013-11-7,-200,0,200,-100,-100,-100,0,0,100,0.00,40.00,7,2,11,0.00
2013-11-8,-200,0,200,-100,-100,-100,0,0,100,0.00,40.00,7,2,14,0.00
2013-11-9,-200,0,200,-100,-100,-100,0,0,100,0.00,40.00,9,4,19,0.00
2013-11-10,-200,0,200,-100,-100,-100,0,0,100,0.00,40.00,7,2,11,0.00
2013-11-11,-200,0,200,-100,-100,-100,0,0,100,0.00,40.00,8,3,14,0.00
2013-11-12,-200,0,200,-100,-100,-100,0,0,100,0.00,40.00,6,2,10,0.00
2013-11-13,-200,0,200,-100,-100,-100,0,0,100,0.00,40.00,8,2,14,0.00
2013-11-14,-200,0,200,-100,-100,-100,0,0,100,0.00,40.00,4,2,10,0.00
2013-11-15,-200,0,200,-100,-100,-100,0,0,100,0.00,40.00,5,1,8,0.00
2013-11-16,-200,0,200,-100,-100,-100,0,0,100,0.00,40.00,8,1,16,0.00
2013-11-17,-200,0,200,-100,-100,-100,0,0,100,0.00,40.00,10,2,17,0.00
2013-11-18,-200,0,200,-100,-100,-100,0,0,100,0.00,40.00,11,3,19,0.00
2013-11-19,-200,0,200,-100,-100,-100,0,0,100,0.00,40.00,6,1,8,0.00
2013-11-20,-200,0,200,-100,-100,-100,0,0,100,0.00,40.00,6,1,11,0.00
2013-11-21,-200,0,200,-100,-100,-100,0,0,100,0.00,40.00,7,2,13,0.00
2013-11-22,-200,0,200,-100,-100,-100,0,0,100,0.00,40.00,7,2,13,0.00
2013-11-23,-200,0,200,-100,-100,-100,0,0,100,0.00,40.00,11,3,18,0.00
2013-11-24,-200,0,200,-100,-100,-100,0,0,100,0.00,40.00,8,-9,14,0.00
2013-11-25,-200,0,200,-100,-100,-100,0,0,100,0.00,40.00,7,3,13,0.00
2013-11-26,-200,0,200,-100,-100,-100,0,0,100,0.00,40.00,12,4,24,0.00
2013-11-27,-200,0,200,-100,-100,-100,0,0,100,0.00,40.00,7,2,9,0.00
2013-11-28,-200,0,200,-100,-100,-100,0,0,100,0.00,40.00,7,-6,12,0.00
2013-11-29,-200,0,200,-100,-100,-100,0,0,100,0.00,40.00,7,1,10,0.00
2013-11-30,-200,0,200,-100,-100,-100,0,0,100,0.00,40.00,6,1,8,0.00
2013-12-1,-200,0,200,-100,-100,-100,0,0,100,0.00,40.00,4,1,7,0.00
2013-12-2,-200,0,200,-100,-100,-100,0,0,100,0.00,40.00,4,1,7,0.00
2013-12-3,-200,0,200,-100,-100,-100,0,0,100,0.00,40.00,4,1,7,0.00
2013-12-4,-200,0,200,-100,-100,-100,0,0,100,0.00,40.00,9,2,16,0.00
2013-12-5,-200,0,200,-100,-100,-100,0,0,100,0.00,40.00,10,4,18,0.00
2013-12-6,-200,0,200,-100,-100,-100,0,0,100,0.00,40.00,7,2,11,0.00
2013-12-7,-200,0,200,-100,-100,-100,0,0,100,0.00,40.00,5,1,8,0.00
2013-12-8,-200,0,200,-100,-100,-100,0,0,100,0.00,40.00,5,2,7,0.00
2013-12-9,-200,0,200,-100,-100,-100,0,0,100,0.00,40.00,8,-2,15,0.00
2013-12-10,-200,0,200,-100,-100,-100,0,0,100,0.00,40.00,9,2,16,0.00
2013-12-11,-200,0,200,-100,-100,-100,0,0,100,0.00,40.00,8,2,13,0.00
2013-12-12,-200,0,200,-100,-100,-100,0,0,100,0.00,40.00,5,2,10,0.00
2013-12-13,-200,0,200,-100,-100,-100,0,0,100,0.00,40.00,7,3,15,0.00
2013-12-14,-200,0,200,-100,-100,-100,0,0,100,0.00,40.00,6,2,10,0.00
2013-12-15,-200,0,200,-100,-100,-100,0,0,100,0.00,40.00,7,2,10,0.00
2013-12-16,-200,0,200,-100,-100,-100,0,0,100,0.00,40.00,5,1,8,0.00
2013-12-17,-200,0,200,-100,-100,-100,0,0,100,0.00,40.00,10,3,19,0.00
2013-12-18,-200,0,200,-100,-100,-100,0,0,100,0.00,40.00,7,1,14,0.00
2013-12-19,-200,0,200,-100,-100,-100,90,36,81,0.00,40.00,8,3,13,0.00
2013-12-20,-200,0,200,-100,-100,-100,91,90,88,0.00,40.00,7,1,14,0.00
2013-12-21,-200,0,200,-100,-100,-100,91,89,84,0.00,40.00,4,0,8,0.00
2013-12-22,-200,0,200,-100,-100,-100,90,86,83,0.00,40.00,6,2,13,0.00
2013-12-23,-200,0,200,-100,-100,-100,83,78,70,0.00,40.00,6,2,10,0.00
2013-12-24,-200,0,200,-100,-100,-100,85,79,67,0.00,40.00,7,1,11,0.00
2013-12-25,-200,0,200,-100,-100,-100,90,85,80,0.00,40.00,6,1,11,0.00
2013-12-26,-200,0,200,-100,-100,-100,88,84,76,0.00,40.00,3,1,4,0.00
2013-12-27,-200,0,200,-100,-100,-100,92,84,72,0.00,40.00,6,1,12,0.00
2013-12-28,-200,0,200,-100,-100,-100,94,83,63,0.00,40.00,7,1,14,0.00
2013-12-29,-200,0,200,-100,-100,-100,91,76,62,0.00,40.00,11,4,18,0.00
2013-12-30,-200,0,200,-100,-100,-100,82,77,64,0.00,40.00,4,1,7,0.00
2013-12-31,-200,0,200,-100,-100,-100,84,78,72,0.00,40.00,4,1,7,0.00
2014-1-1,-200,0,200,-100,-100,-100,76,69,63,0.00,40.00,7,2,10,0.00
2014-1-2,-200,0,200,-100,-100,-100,80,73,62,0.00,40.00,6,2,11,0.00